CPA21 FACT-FAOR
Flight info
| Callsign | CPA21 |
|---|---|
| Flight time | 1h 22m |
| Altitude | 37000 |
| Route | TETAN1B TETAN UZ2 NIBEX NIBEX1B |
| Aircraft | B77W/H-SDE1E2E3FGHIJ2J3J4J5M1RWXY/LB1D1 |
Departure
| Time | 2026-05-04 18:08 |
|---|---|
| Airport | Cape Town International Airport (FACT) |
Arrival
| Time | 2026-05-04 19:31 |
|---|---|
| Airport | O.R. Tambo International Airport (FAOR) |
| Time | Latitude | Longitude | Altitude | Speed | Heading |
|---|---|---|---|---|---|
| 2026-05-04 17:44 | -33.96899 | 18.59807 | 159 ft | 0 kts | 255° |
| 2026-05-04 17:57 | -33.96897 | 18.59816 | 159 ft | 4 kts | 258° |
| 2026-05-04 17:57 | -33.96895 | 18.59847 | 159 ft | 4 kts | 278° |
| 2026-05-04 17:57 | -33.96902 | 18.59878 | 159 ft | 4 kts | 301° |
| 2026-05-04 17:57 | -33.96919 | 18.59902 | 159 ft | 4 kts | 324° |
| 2026-05-04 17:58 | -33.96939 | 18.59915 | 159 ft | 1 kts | 345° |
| 2026-05-04 17:58 | -33.96940 | 18.59915 | 159 ft | 0 kts | 345° |
| 2026-05-04 18:02 | -33.96939 | 18.59915 | 159 ft | 2 kts | 344° |
| 2026-05-04 18:02 | -33.96902 | 18.59902 | 159 ft | 7 kts | 343° |
| 2026-05-04 18:02 | -33.96859 | 18.59886 | 159 ft | 7 kts | 344° |
| 2026-05-04 18:03 | -33.96815 | 18.59872 | 159 ft | 7 kts | 345° |
| 2026-05-04 18:03 | -33.96775 | 18.59859 | 159 ft | 0 kts | 345° |
| 2026-05-04 18:03 | -33.96774 | 18.59859 | 159 ft | 0 kts | 345° |
| 2026-05-04 18:03 | -33.96773 | 18.59859 | 159 ft | 0 kts | 345° |
| 2026-05-04 18:04 | -33.96769 | 18.59858 | 159 ft | 1 kts | 345° |
| 2026-05-04 18:04 | -33.96731 | 18.59846 | 159 ft | 11 kts | 345° |
| 2026-05-04 18:04 | -33.96553 | 18.59791 | 159 ft | 17 kts | 345° |
| 2026-05-04 18:05 | -33.96431 | 18.59763 | 159 ft | 18 kts | 351° |
| 2026-05-04 18:05 | -33.96306 | 18.59737 | 159 ft | 18 kts | 350° |
| 2026-05-04 18:05 | -33.96209 | 18.59751 | 159 ft | 14 kts | 38° |
| 2026-05-04 18:05 | -33.96143 | 18.59828 | 158 ft | 6 kts | 45° |
| 2026-05-04 18:06 | -33.96076 | 18.59909 | 159 ft | 8 kts | 45° |
| 2026-05-04 18:06 | -33.96033 | 18.59965 | 159 ft | 9 kts | 57° |
| 2026-05-04 18:06 | -33.96051 | 18.60027 | 159 ft | 9 kts | 164° |
| 2026-05-04 18:07 | -33.96082 | 18.60035 | 159 ft | 0 kts | 164° |
| 2026-05-04 18:07 | -33.96135 | 18.60053 | 159 ft | 23 kts | 164° |
| 2026-05-04 18:08 | -33.96606 | 18.60202 | 162 ft | 124 kts | 166° |
| 2026-05-04 18:08 | -33.97774 | 18.60574 | 303 ft | 210 kts | 164° |
| 2026-05-04 18:08 | -33.99280 | 18.61067 | 1350 ft | 238 kts | 167° |
| 2026-05-04 18:08 | -34.00927 | 18.61609 | 2792 ft | 253 kts | 168° |
| 2026-05-04 18:09 | -34.04311 | 18.62963 | 6362 ft | 264 kts | 158° |
| 2026-05-04 18:09 | -34.06551 | 18.66609 | 8554 ft | 298 kts | 95° |
| 2026-05-04 18:10 | -34.06252 | 18.69038 | 9382 ft | 296 kts | 62° |
| 2026-05-04 18:10 | -34.04629 | 18.71718 | 10332 ft | 299 kts | 50° |
| 2026-05-04 18:10 | -33.94731 | 18.89765 | 17033 ft | 332 kts | 50° |
| 2026-05-04 18:10 | -33.84320 | 19.08853 | 23014 ft | 353 kts | 45° |
| 2026-05-04 18:11 | -33.72863 | 19.29599 | 27696 ft | 395 kts | 45° |
| 2026-05-04 18:11 | -33.59751 | 19.52024 | 31375 ft | 414 kts | 39° |
| 2026-05-04 18:11 | -33.44806 | 19.74315 | 34333 ft | 448 kts | 41° |
| 2026-05-04 18:11 | -33.28170 | 19.99522 | 34485 ft | 499 kts | 39° |
| 2026-05-04 18:12 | -33.09626 | 20.23969 | 36064 ft | 496 kts | 37° |
| 2026-05-04 18:12 | -32.91018 | 20.48520 | 37025 ft | 507 kts | 38° |
| 2026-05-04 18:12 | -32.70451 | 20.75489 | 37002 ft | 497 kts | 37° |
| 2026-05-04 18:13 | -32.68170 | 20.78483 | 37005 ft | 481 kts | 37° |
| 2026-05-04 18:13 | -32.65952 | 20.81391 | 36955 ft | 472 kts | 36° |
| 2026-05-04 18:14 | -32.59280 | 20.90028 | 37019 ft | 478 kts | 36° |
| 2026-05-04 18:14 | -32.54788 | 20.95836 | 37016 ft | 482 kts | 36° |
| 2026-05-04 18:15 | -32.45728 | 21.07585 | 37004 ft | 482 kts | 36° |
| 2026-05-04 18:16 | -32.41204 | 21.13438 | 37001 ft | 481 kts | 36° |
| 2026-05-04 18:16 | -32.36697 | 21.19260 | 36966 ft | 477 kts | 35° |
| 2026-05-04 18:17 | -32.29986 | 21.27900 | 36994 ft | 474 kts | 35° |
| 2026-05-04 18:18 | -32.23332 | 21.36444 | 37003 ft | 473 kts | 35° |
| 2026-05-04 18:18 | -32.18871 | 21.42162 | 37000 ft | 473 kts | 35° |
| 2026-05-04 18:19 | -32.12176 | 21.50726 | 37001 ft | 474 kts | 35° |
| 2026-05-04 18:19 | -32.07698 | 21.56446 | 37006 ft | 475 kts | 35° |
| 2026-05-04 18:20 | -32.03205 | 21.62175 | 37002 ft | 476 kts | 35° |
| 2026-05-04 18:20 | -31.98702 | 21.67910 | 37002 ft | 476 kts | 35° |
| 2026-05-04 18:21 | -31.94213 | 21.73617 | 37008 ft | 477 kts | 35° |
| 2026-05-04 18:21 | -31.89700 | 21.79346 | 36990 ft | 477 kts | 35° |
| 2026-05-04 18:22 | -31.85187 | 21.85068 | 36999 ft | 477 kts | 34° |
| 2026-05-04 18:22 | -31.80671 | 21.90783 | 37003 ft | 476 kts | 34° |
| 2026-05-04 18:23 | -31.76183 | 21.96453 | 37002 ft | 476 kts | 34° |
| 2026-05-04 18:23 | -31.71664 | 22.02154 | 36957 ft | 477 kts | 34° |
| 2026-05-04 18:24 | -31.67139 | 22.07854 | 36999 ft | 477 kts | 34° |
| 2026-05-04 18:24 | -31.62597 | 22.13563 | 36952 ft | 478 kts | 34° |
| 2026-05-04 18:25 | -31.58051 | 22.19272 | 36993 ft | 479 kts | 34° |
| 2026-05-04 18:25 | -31.53489 | 22.24990 | 36995 ft | 481 kts | 34° |
| 2026-05-04 18:26 | -31.48907 | 22.30726 | 37001 ft | 482 kts | 34° |
| 2026-05-04 18:26 | -31.44343 | 22.36432 | 36994 ft | 484 kts | 34° |
| 2026-05-04 18:27 | -31.39741 | 22.42178 | 36992 ft | 484 kts | 34° |
| 2026-05-04 18:27 | -31.35134 | 22.47922 | 36957 ft | 482 kts | 34° |
| 2026-05-04 18:28 | -31.30552 | 22.53626 | 36983 ft | 481 kts | 34° |
| 2026-05-04 18:28 | -31.25950 | 22.59342 | 36982 ft | 481 kts | 33° |
| 2026-05-04 18:29 | -31.21356 | 22.65040 | 36983 ft | 481 kts | 34° |
| 2026-05-04 18:29 | -31.16801 | 22.70683 | 36983 ft | 481 kts | 33° |
| 2026-05-04 18:30 | -31.09913 | 22.79201 | 36927 ft | 480 kts | 33° |
| 2026-05-04 18:31 | -31.05332 | 22.84858 | 36967 ft | 478 kts | 33° |
| 2026-05-04 18:31 | -31.00767 | 22.90473 | 36963 ft | 476 kts | 33° |
| 2026-05-04 18:32 | -30.96202 | 22.96064 | 36971 ft | 476 kts | 33° |
| 2026-05-04 18:32 | -30.91632 | 23.01652 | 36959 ft | 475 kts | 33° |
| 2026-05-04 18:33 | -30.87070 | 23.07226 | 36959 ft | 476 kts | 33° |
| 2026-05-04 18:33 | -30.82509 | 23.12799 | 36946 ft | 475 kts | 33° |
| 2026-05-04 18:34 | -30.77970 | 23.18331 | 36964 ft | 475 kts | 33° |
| 2026-05-04 18:34 | -30.73378 | 23.23916 | 36972 ft | 475 kts | 33° |
| 2026-05-04 18:35 | -30.68843 | 23.29427 | 36953 ft | 475 kts | 33° |
| 2026-05-04 18:35 | -30.64269 | 23.34978 | 36964 ft | 476 kts | 33° |
| 2026-05-04 18:36 | -30.59688 | 23.40528 | 36981 ft | 477 kts | 33° |
| 2026-05-04 18:36 | -30.55088 | 23.46093 | 36960 ft | 477 kts | 33° |
| 2026-05-04 18:37 | -30.50480 | 23.51662 | 36979 ft | 478 kts | 33° |
| 2026-05-04 18:37 | -30.45865 | 23.57228 | 36981 ft | 479 kts | 33° |
| 2026-05-04 18:38 | -30.41236 | 23.62806 | 36982 ft | 480 kts | 33° |
| 2026-05-04 18:38 | -30.36627 | 23.68352 | 36932 ft | 480 kts | 33° |
| 2026-05-04 18:39 | -30.31988 | 23.73928 | 36978 ft | 480 kts | 33° |
| 2026-05-04 18:39 | -30.27349 | 23.79494 | 36988 ft | 479 kts | 32° |
| 2026-05-04 18:40 | -30.22721 | 23.85036 | 36992 ft | 479 kts | 32° |
| 2026-05-04 18:40 | -30.18087 | 23.90578 | 37000 ft | 479 kts | 32° |
| 2026-05-04 18:41 | -30.13483 | 23.96076 | 37000 ft | 479 kts | 32° |
| 2026-05-04 18:41 | -30.08854 | 24.01597 | 37005 ft | 478 kts | 32° |
| 2026-05-04 18:42 | -30.04220 | 24.07116 | 36971 ft | 478 kts | 33° |
| 2026-05-04 18:42 | -29.99588 | 24.12624 | 37001 ft | 478 kts | 33° |
| 2026-05-04 18:43 | -29.94947 | 24.18132 | 37008 ft | 480 kts | 33° |
| 2026-05-04 18:43 | -29.90284 | 24.23659 | 37015 ft | 481 kts | 33° |
| 2026-05-04 18:44 | -29.85606 | 24.29197 | 37014 ft | 483 kts | 33° |
| 2026-05-04 18:44 | -29.80911 | 24.34750 | 37012 ft | 483 kts | 33° |
| 2026-05-04 18:45 | -29.76210 | 24.40303 | 36979 ft | 484 kts | 33° |
| 2026-05-04 18:45 | -29.71515 | 24.45840 | 37005 ft | 484 kts | 33° |
| 2026-05-04 18:46 | -29.66835 | 24.51351 | 37008 ft | 484 kts | 32° |
| 2026-05-04 18:46 | -29.62114 | 24.56901 | 37012 ft | 485 kts | 32° |
| 2026-05-04 18:47 | -29.57392 | 24.62444 | 37012 ft | 486 kts | 32° |
| 2026-05-04 18:47 | -29.52659 | 24.67992 | 37025 ft | 486 kts | 32° |
| 2026-05-04 18:48 | -29.47914 | 24.73547 | 37016 ft | 487 kts | 32° |
| 2026-05-04 18:48 | -29.43173 | 24.79092 | 37031 ft | 486 kts | 32° |
| 2026-05-04 18:49 | -29.38436 | 24.84623 | 37031 ft | 486 kts | 32° |
| 2026-05-04 18:49 | -29.33689 | 24.90155 | 37006 ft | 486 kts | 32° |
| 2026-05-04 18:50 | -29.28980 | 24.95637 | 37024 ft | 486 kts | 32° |
| 2026-05-04 18:50 | -29.24235 | 25.01152 | 37019 ft | 486 kts | 32° |
| 2026-05-04 18:51 | -29.19487 | 25.06662 | 37041 ft | 486 kts | 32° |
| 2026-05-04 18:51 | -29.15533 | 25.11246 | 37047 ft | 487 kts | 32° |
| 2026-05-04 18:52 | -29.10760 | 25.16772 | 37050 ft | 488 kts | 32° |
| 2026-05-04 18:52 | -29.05973 | 25.22306 | 37042 ft | 489 kts | 32° |
| 2026-05-04 18:53 | -29.01214 | 25.27802 | 36984 ft | 489 kts | 33° |
| 2026-05-04 18:53 | -28.96424 | 25.33327 | 37007 ft | 489 kts | 33° |
| 2026-05-04 18:54 | -28.91637 | 25.38840 | 37045 ft | 489 kts | 33° |
| 2026-05-04 18:54 | -28.86837 | 25.44357 | 37050 ft | 490 kts | 33° |
| 2026-05-04 18:55 | -28.82023 | 25.49883 | 37052 ft | 491 kts | 33° |
| 2026-05-04 18:55 | -28.74788 | 25.58177 | 37057 ft | 492 kts | 33° |
| 2026-05-04 18:56 | -28.69956 | 25.63706 | 37059 ft | 492 kts | 33° |
| 2026-05-04 18:56 | -28.65130 | 25.69221 | 37055 ft | 491 kts | 33° |
| 2026-05-04 18:57 | -28.60330 | 25.74700 | 37057 ft | 491 kts | 33° |
| 2026-05-04 18:57 | -28.55513 | 25.80190 | 37074 ft | 490 kts | 33° |
| 2026-05-04 18:58 | -28.50690 | 25.85678 | 37070 ft | 490 kts | 33° |
| 2026-05-04 18:58 | -28.45870 | 25.91156 | 37080 ft | 489 kts | 33° |
| 2026-05-04 18:59 | -28.41056 | 25.96619 | 37043 ft | 489 kts | 33° |
| 2026-05-04 18:59 | -28.36242 | 26.02077 | 37072 ft | 489 kts | 33° |
| 2026-05-04 19:00 | -28.31414 | 26.07536 | 37069 ft | 489 kts | 34° |
| 2026-05-04 19:00 | -28.26589 | 26.12985 | 37091 ft | 490 kts | 34° |
| 2026-05-04 19:01 | -28.21782 | 26.18409 | 37101 ft | 491 kts | 34° |
| 2026-05-04 19:01 | -28.16935 | 26.23872 | 37101 ft | 492 kts | 34° |
| 2026-05-04 19:02 | -28.12075 | 26.29343 | 37101 ft | 492 kts | 34° |
| 2026-05-04 19:02 | -28.07210 | 26.34813 | 37114 ft | 493 kts | 34° |
| 2026-05-04 19:03 | -28.02328 | 26.40296 | 37113 ft | 494 kts | 34° |
| 2026-05-04 19:03 | -27.97441 | 26.45770 | 37091 ft | 494 kts | 34° |
| 2026-05-04 19:04 | -27.92547 | 26.51240 | 37115 ft | 495 kts | 34° |
| 2026-05-04 19:04 | -27.87680 | 26.56675 | 37086 ft | 495 kts | 34° |
| 2026-05-04 19:05 | -27.82785 | 26.62136 | 37124 ft | 495 kts | 34° |
| 2026-05-04 19:05 | -27.77867 | 26.67616 | 37132 ft | 496 kts | 34° |
| 2026-05-04 19:06 | -27.72950 | 26.73087 | 37132 ft | 496 kts | 34° |
| 2026-05-04 19:06 | -27.68029 | 26.78557 | 37134 ft | 496 kts | 34° |
| 2026-05-04 19:07 | -27.63105 | 26.84022 | 37136 ft | 496 kts | 34° |
| 2026-05-04 19:07 | -27.58217 | 26.89438 | 37135 ft | 496 kts | 35° |
| 2026-05-04 19:08 | -27.53274 | 26.94909 | 37152 ft | 498 kts | 35° |
| 2026-05-04 19:08 | -27.48338 | 27.00367 | 37055 ft | 492 kts | 34° |
| 2026-05-04 19:09 | -27.45931 | 27.03039 | 36535 ft | 480 kts | 34° |
| 2026-05-04 19:09 | -27.43565 | 27.05660 | 35760 ft | 474 kts | 35° |
| 2026-05-04 19:09 | -27.41218 | 27.08247 | 34886 ft | 471 kts | 35° |
| 2026-05-04 19:09 | -27.38875 | 27.10822 | 33981 ft | 470 kts | 35° |
| 2026-05-04 19:10 | -27.36543 | 27.13386 | 33115 ft | 465 kts | 35° |
| 2026-05-04 19:10 | -27.34257 | 27.15905 | 32439 ft | 456 kts | 35° |
| 2026-05-04 19:10 | -27.32013 | 27.18377 | 31781 ft | 446 kts | 36° |
| 2026-05-04 19:10 | -27.29818 | 27.20792 | 31153 ft | 438 kts | 36° |
| 2026-05-04 19:11 | -27.27653 | 27.23168 | 30459 ft | 430 kts | 37° |
| 2026-05-04 19:11 | -27.25555 | 27.25469 | 29720 ft | 424 kts | 37° |
| 2026-05-04 19:11 | -27.23457 | 27.27769 | 28879 ft | 419 kts | 37° |
| 2026-05-04 19:11 | -27.21382 | 27.30045 | 28071 ft | 413 kts | 37° |
| 2026-05-04 19:12 | -27.19283 | 27.32203 | 27289 ft | 405 kts | 33° |
| 2026-05-04 19:12 | -27.15035 | 27.36226 | 25823 ft | 394 kts | 33° |
| 2026-05-04 19:12 | -27.12935 | 27.38197 | 25166 ft | 396 kts | 33° |
| 2026-05-04 19:13 | -27.10821 | 27.40183 | 24766 ft | 393 kts | 33° |
| 2026-05-04 19:13 | -27.08747 | 27.42141 | 24480 ft | 387 kts | 33° |
| 2026-05-04 19:13 | -27.06696 | 27.44080 | 24140 ft | 383 kts | 33° |
| 2026-05-04 19:13 | -27.04664 | 27.46001 | 23749 ft | 381 kts | 33° |
| 2026-05-04 19:14 | -27.02635 | 27.47917 | 23276 ft | 380 kts | 33° |
| 2026-05-04 19:14 | -27.00616 | 27.49824 | 22806 ft | 379 kts | 33° |
| 2026-05-04 19:14 | -26.98603 | 27.51725 | 22366 ft | 377 kts | 33° |
| 2026-05-04 19:14 | -26.96604 | 27.53612 | 21946 ft | 374 kts | 33° |
| 2026-05-04 19:15 | -26.94652 | 27.55460 | 21947 ft | 361 kts | 33° |
| 2026-05-04 19:15 | -26.92759 | 27.57246 | 21984 ft | 364 kts | 32° |
| 2026-05-04 19:15 | -26.90783 | 27.59099 | 21940 ft | 375 kts | 33° |
| 2026-05-04 19:15 | -26.88772 | 27.60989 | 21513 ft | 380 kts | 33° |
| 2026-05-04 19:16 | -26.86740 | 27.62907 | 21019 ft | 382 kts | 33° |
| 2026-05-04 19:16 | -26.84721 | 27.64819 | 20705 ft | 377 kts | 34° |
| 2026-05-04 19:16 | -26.82756 | 27.66703 | 20479 ft | 369 kts | 33° |
| 2026-05-04 19:16 | -26.80775 | 27.68483 | 20153 ft | 360 kts | 31° |
| 2026-05-04 19:17 | -26.78797 | 27.70156 | 19528 ft | 354 kts | 30° |
| 2026-05-04 19:17 | -26.76799 | 27.71810 | 18885 ft | 360 kts | 30° |
| 2026-05-04 19:17 | -26.74788 | 27.73480 | 18514 ft | 358 kts | 30° |
| 2026-05-04 19:17 | -26.72808 | 27.75138 | 18179 ft | 354 kts | 30° |
| 2026-05-04 19:18 | -26.70852 | 27.76784 | 17796 ft | 351 kts | 30° |
| 2026-05-04 19:18 | -26.68902 | 27.78427 | 17370 ft | 350 kts | 31° |
| 2026-05-04 19:18 | -26.66965 | 27.80063 | 17046 ft | 345 kts | 31° |
| 2026-05-04 19:18 | -26.65089 | 27.81651 | 16986 ft | 333 kts | 31° |
| 2026-05-04 19:19 | -26.63291 | 27.83173 | 16623 ft | 323 kts | 30° |
| 2026-05-04 19:19 | -26.61535 | 27.84657 | 16387 ft | 308 kts | 30° |
| 2026-05-04 19:19 | -26.59874 | 27.86062 | 16226 ft | 290 kts | 30° |
| 2026-05-04 19:19 | -26.58325 | 27.87374 | 16067 ft | 270 kts | 29° |
| 2026-05-04 19:20 | -26.56843 | 27.88622 | 15587 ft | 264 kts | 29° |
| 2026-05-04 19:20 | -26.55375 | 27.89853 | 15106 ft | 265 kts | 30° |
| 2026-05-04 19:20 | -26.54080 | 27.91366 | 14584 ft | 281 kts | 56° |
| 2026-05-04 19:20 | -26.53619 | 27.93515 | 14184 ft | 293 kts | 90° |
| 2026-05-04 19:21 | -26.54016 | 27.95745 | 13813 ft | 291 kts | 102° |
| 2026-05-04 19:21 | -26.54510 | 27.97915 | 13342 ft | 287 kts | 102° |
| 2026-05-04 19:21 | -26.54979 | 28.00050 | 12799 ft | 286 kts | 101° |
| 2026-05-04 19:21 | -26.55442 | 28.02221 | 12185 ft | 283 kts | 101° |
| 2026-05-04 19:22 | -26.55887 | 28.04330 | 11584 ft | 281 kts | 100° |
| 2026-05-04 19:22 | -26.56009 | 28.06454 | 10951 ft | 271 kts | 73° |
| 2026-05-04 19:22 | -26.55275 | 28.08321 | 10312 ft | 259 kts | 47° |
| 2026-05-04 19:22 | -26.54056 | 28.09754 | 9698 ft | 253 kts | 36° |
| 2026-05-04 19:23 | -26.52755 | 28.11084 | 9356 ft | 252 kts | 37° |
| 2026-05-04 19:23 | -26.51479 | 28.12395 | 9143 ft | 246 kts | 37° |
| 2026-05-04 19:23 | -26.50241 | 28.13673 | 8788 ft | 240 kts | 35° |
| 2026-05-04 19:23 | -26.48841 | 28.14603 | 8292 ft | 231 kts | 14° |
| 2026-05-04 19:24 | -26.47349 | 28.15147 | 8096 ft | 220 kts | 12° |
| 2026-05-04 19:24 | -26.45925 | 28.15625 | 8004 ft | 208 kts | 11° |
| 2026-05-04 19:24 | -26.44544 | 28.16065 | 7993 ft | 207 kts | 10° |
| 2026-05-04 19:24 | -26.43126 | 28.16508 | 8009 ft | 221 kts | 10° |
| 2026-05-04 19:25 | -26.41607 | 28.16979 | 8005 ft | 229 kts | 11° |
| 2026-05-04 19:25 | -26.40090 | 28.17454 | 8003 ft | 230 kts | 11° |
| 2026-05-04 19:25 | -26.38551 | 28.17936 | 7989 ft | 230 kts | 11° |
| 2026-05-04 19:25 | -26.37005 | 28.18420 | 7982 ft | 226 kts | 11° |
| 2026-05-04 19:26 | -26.35527 | 28.18883 | 7964 ft | 215 kts | 10° |
| 2026-05-04 19:26 | -26.34119 | 28.19323 | 7971 ft | 207 kts | 10° |
| 2026-05-04 19:26 | -26.32736 | 28.19751 | 7970 ft | 205 kts | 10° |
| 2026-05-04 19:26 | -26.31401 | 28.20168 | 7984 ft | 192 kts | 10° |
| 2026-05-04 19:27 | -26.30161 | 28.20555 | 7974 ft | 180 kts | 10° |
| 2026-05-04 19:27 | -26.28993 | 28.20919 | 7965 ft | 167 kts | 10° |
| 2026-05-04 19:27 | -26.27897 | 28.21260 | 7790 ft | 161 kts | 9° |
| 2026-05-04 19:27 | -26.26841 | 28.21587 | 7623 ft | 158 kts | 9° |
| 2026-05-04 19:28 | -26.25782 | 28.21916 | 7382 ft | 156 kts | 9° |
| 2026-05-04 19:28 | -26.24873 | 28.22199 | 7214 ft | 153 kts | 9° |
| 2026-05-04 19:28 | -26.23841 | 28.22520 | 7041 ft | 156 kts | 10° |
| 2026-05-04 19:28 | -26.22796 | 28.22843 | 6847 ft | 159 kts | 11° |
| 2026-05-04 19:29 | -26.21752 | 28.23171 | 6649 ft | 154 kts | 12° |
| 2026-05-04 19:29 | -26.20736 | 28.23522 | 6383 ft | 152 kts | 13° |
| 2026-05-04 19:29 | -26.19712 | 28.23857 | 6212 ft | 154 kts | 13° |
| 2026-05-04 19:29 | -26.18651 | 28.24153 | 5998 ft | 158 kts | 12° |
| 2026-05-04 19:30 | -26.17586 | 28.24469 | 5773 ft | 158 kts | 14° |
| 2026-05-04 19:30 | -26.16553 | 28.24794 | 5564 ft | 156 kts | 14° |
| 2026-05-04 19:30 | -26.15564 | 28.25092 | 5522 ft | 129 kts | 15° |
| 2026-05-04 19:30 | -26.14873 | 28.25308 | 5513 ft | 76 kts | 15° |
| 2026-05-04 19:31 | -26.14513 | 28.25420 | 5511 ft | 44 kts | 16° |
| 2026-05-04 19:31 | -26.14259 | 28.25477 | 5516 ft | 33 kts | 1° |
| 2026-05-04 19:31 | -26.14110 | 28.25460 | 5516 ft | 16 kts | 350° |
| 2026-05-04 19:31 | -26.14002 | 28.25439 | 5515 ft | 16 kts | 350° |
| 2026-05-04 19:32 | -26.13895 | 28.25422 | 5515 ft | 16 kts | 352° |
| 2026-05-04 19:32 | -26.13791 | 28.25436 | 5513 ft | 15 kts | 14° |
| 2026-05-04 19:32 | -26.13688 | 28.25468 | 5511 ft | 15 kts | 16° |
| 2026-05-04 19:32 | -26.13585 | 28.25500 | 5507 ft | 15 kts | 15° |
| 2026-05-04 19:33 | -26.13481 | 28.25524 | 5513 ft | 15 kts | 359° |
| 2026-05-04 19:33 | -26.13375 | 28.25506 | 5518 ft | 15 kts | 348° |
| 2026-05-04 19:33 | -26.13270 | 28.25482 | 5524 ft | 15 kts | 349° |
| 2026-05-04 19:33 | -26.13165 | 28.25457 | 5529 ft | 15 kts | 345° |
| 2026-05-04 19:34 | -26.13064 | 28.25417 | 5531 ft | 15 kts | 334° |
| 2026-05-04 19:34 | -26.12976 | 28.25349 | 5531 ft | 15 kts | 317° |
| 2026-05-04 19:34 | -26.12907 | 28.25258 | 5531 ft | 15 kts | 302° |
| 2026-05-04 19:34 | -26.12862 | 28.25150 | 5531 ft | 15 kts | 287° |
| 2026-05-04 19:35 | -26.12831 | 28.25030 | 5531 ft | 18 kts | 286° |
| 2026-05-04 19:35 | -26.12797 | 28.24898 | 5531 ft | 18 kts | 285° |
| 2026-05-04 19:35 | -26.12764 | 28.24765 | 5531 ft | 18 kts | 286° |
| 2026-05-04 19:35 | -26.12730 | 28.24633 | 5532 ft | 18 kts | 286° |
| 2026-05-04 19:36 | -26.12697 | 28.24500 | 5536 ft | 18 kts | 285° |
| 2026-05-04 19:36 | -26.12663 | 28.24368 | 5543 ft | 18 kts | 285° |
| 2026-05-04 19:36 | -26.12631 | 28.24242 | 5547 ft | 18 kts | 285° |
| 2026-05-04 19:36 | -26.12602 | 28.24124 | 5549 ft | 18 kts | 285° |
| 2026-05-04 19:37 | -26.12570 | 28.23993 | 5549 ft | 17 kts | 285° |
| 2026-05-04 19:37 | -26.12564 | 28.23877 | 5551 ft | 16 kts | 231° |
| 2026-05-04 19:37 | -26.12658 | 28.23847 | 5553 ft | 15 kts | 194° |
| 2026-05-04 19:37 | -26.12759 | 28.23816 | 5553 ft | 15 kts | 195° |
| 2026-05-04 19:38 | -26.12859 | 28.23785 | 5554 ft | 15 kts | 195° |
| 2026-05-04 19:38 | -26.12959 | 28.23754 | 5553 ft | 15 kts | 195° |
| 2026-05-04 19:38 | -26.13060 | 28.23723 | 5552 ft | 15 kts | 195° |
| 2026-05-04 19:38 | -26.13128 | 28.23680 | 5552 ft | 11 kts | 246° |
| 2026-05-04 19:39 | -26.13127 | 28.23601 | 5553 ft | 11 kts | 277° |
| 2026-05-04 19:39 | -26.13118 | 28.23518 | 5555 ft | 11 kts | 277° |
| 2026-05-04 19:39 | -26.13128 | 28.23437 | 5556 ft | 11 kts | 234° |
| 2026-05-04 19:39 | -26.13189 | 28.23408 | 5555 ft | 8 kts | 189° |
| 2026-05-04 19:40 | -26.13222 | 28.23397 | 5556 ft | 8 kts | 217° |
| 2026-05-04 19:40 | -26.13231 | 28.23352 | 5554 ft | 2 kts | 276° |
| 2026-05-04 19:40 | -26.13229 | 28.23338 | 5553 ft | 2 kts | 276° |
| 2026-05-04 19:40 | -26.13228 | 28.23324 | 5554 ft | 2 kts | 276° |
| 2026-05-04 19:41 | -26.13227 | 28.23317 | 5554 ft | 0 kts | 276° |